createdAt,value
2018-02-21T00:02:26.076Z,21.40
2018-02-21T00:04:53.619Z,22.07
2018-02-21T00:07:21.224Z,24.37
2018-02-21T00:09:48.776Z,26.47
2018-02-21T00:12:16.379Z,22.40
2018-02-21T00:14:43.963Z,22.40
2018-02-21T00:17:11.516Z,24.03
2018-02-21T00:19:39.339Z,25.90
2018-02-21T00:22:06.888Z,22.63
2018-02-21T00:24:34.431Z,24.93
2018-02-21T00:27:02.009Z,24.17
2018-02-21T00:29:29.555Z,25.57
2018-02-21T00:31:57.130Z,26.93
2018-02-21T00:34:24.895Z,27.33
2018-02-21T00:36:52.434Z,26.17
2018-02-21T00:39:19.967Z,23.87
2018-02-21T00:41:47.954Z,27.27
2018-02-21T00:44:15.504Z,23.33
2018-02-21T00:46:43.092Z,27.83
2018-02-21T00:49:10.927Z,23.97
2018-02-21T00:51:38.740Z,24.07
2018-02-21T00:54:06.331Z,21.33
2018-02-21T00:56:33.867Z,26.10
2018-02-21T00:59:01.468Z,24.40
2018-02-21T01:01:29.010Z,24.37
2018-02-21T01:03:57.154Z,24.90
2018-02-21T01:06:24.744Z,24.97
2018-02-21T01:08:52.289Z,24.23
2018-02-21T01:11:20.141Z,30.17
2018-02-21T01:13:47.687Z,28.50
2018-02-21T01:16:15.272Z,25.07
2018-02-21T01:18:42.823Z,22.97
2018-02-21T01:21:10.409Z,24.00
2018-02-21T01:23:37.957Z,27.03
2018-02-21T01:26:06.111Z,24.83
2018-02-21T01:28:33.696Z,24.17
2018-02-21T01:31:01.299Z,21.47
2018-02-21T01:33:28.834Z,24.20
2018-02-21T01:35:56.375Z,23.20
2018-02-21T01:38:23.967Z,22.77
2018-02-21T01:40:51.542Z,20.97
2018-02-21T01:43:19.092Z,23.70
2018-02-21T01:45:46.992Z,24.80
2018-02-21T01:48:14.533Z,23.50
2018-02-21T01:50:53.015Z,22.03
2018-02-21T01:53:20.600Z,19.57
2018-02-21T01:55:48.190Z,23.33
2018-02-21T01:58:15.776Z,22.27
2018-02-21T02:00:43.370Z,26.80
2018-02-21T02:03:10.908Z,20.80
2018-02-21T02:05:38.455Z,23.70
2018-02-21T02:08:06.034Z,22.07
2018-02-21T02:10:33.581Z,20.93
2018-02-21T02:13:01.620Z,24.37
2018-02-21T02:15:30.159Z,20.17
2018-02-21T02:17:57.772Z,19.63
2018-02-21T02:20:25.324Z,20.63
2018-02-21T02:22:52.871Z,26.80
2018-02-21T02:25:20.454Z,26.33
2018-02-21T02:27:48.396Z,23.43
2018-02-21T02:30:15.996Z,24.23
2018-02-21T02:32:43.544Z,23.20
2018-02-21T02:35:11.898Z,19.20
2018-02-21T02:37:39.759Z,18.60
2018-02-21T02:40:07.309Z,22.90
2018-02-21T02:42:34.860Z,20.87
2018-02-21T02:45:02.613Z,21.87
2018-02-21T02:47:30.207Z,19.10
2018-02-21T02:49:57.761Z,22.37
2018-02-21T02:52:25.364Z,22.23
2018-02-21T02:54:52.902Z,20.27
2018-02-21T02:57:20.885Z,24.40
2018-02-21T02:59:48.461Z,20.23
2018-02-21T03:02:16.289Z,24.47
2018-02-21T03:04:43.987Z,23.37
2018-02-21T03:07:11.530Z,25.73
2018-02-21T03:09:39.107Z,23.13
2018-02-21T03:12:06.927Z,25.87
2018-02-21T03:14:34.522Z,19.30
2018-02-21T03:17:02.072Z,18.97
2018-02-21T03:19:30.108Z,21.33
2018-02-21T03:21:57.925Z,20.07
2018-02-21T03:24:25.905Z,21.17
2018-02-21T03:26:53.933Z,20.53
2018-02-21T03:29:22.499Z,22.67
2018-02-21T03:31:50.381Z,22.30
2018-02-21T03:34:17.973Z,22.67
2018-02-21T03:36:45.596Z,21.57
2018-02-21T03:39:13.189Z,26.50
2018-02-21T03:41:40.731Z,21.53
2018-02-21T03:44:08.323Z,22.30
2018-02-21T03:46:35.861Z,26.80
2018-02-21T03:49:03.407Z,22.80
2018-02-21T03:51:31.015Z,27.93
2018-02-21T03:53:58.564Z,22.17
2018-02-21T03:56:26.106Z,20.93
2018-02-21T03:58:53.695Z,26.60
2018-02-21T04:01:21.242Z,20.20
2018-02-21T04:03:48.791Z,22.20
2018-02-21T04:06:16.370Z,22.13
2018-02-21T04:08:43.952Z,21.80
2018-02-21T04:11:11.489Z,23.70
2018-02-21T04:13:39.047Z,26.43
2018-02-21T04:16:06.639Z,21.50
2018-02-21T04:18:34.231Z,21.43
2018-02-21T04:21:01.767Z,20.43
2018-02-21T04:23:29.364Z,23.63
2018-02-21T04:25:56.910Z,21.30
2018-02-21T04:28:24.495Z,23.80
2018-02-21T04:30:52.036Z,20.10
2018-02-21T04:33:19.626Z,20.33
2018-02-21T04:35:47.172Z,22.53
2018-02-21T04:38:14.749Z,23.70
2018-02-21T04:40:42.359Z,24.87
2018-02-21T04:43:10.078Z,23.43
2018-02-21T04:45:37.661Z,22.80
2018-02-21T04:48:05.610Z,23.80
2018-02-21T04:50:33.215Z,23.37
2018-02-21T04:53:00.780Z,20.33
2018-02-21T04:55:31.858Z,22.27
2018-02-21T04:58:05.052Z,20.27
2018-02-21T05:00:32.621Z,21.13
2018-02-21T05:03:01.348Z,22.33
2018-02-21T05:05:28.900Z,23.43
2018-02-21T05:07:56.488Z,21.03
2018-02-21T05:10:24.034Z,22.80
2018-02-21T05:12:51.755Z,24.43
2018-02-21T05:15:19.356Z,19.63
2018-02-21T05:17:47.859Z,23.37
2018-02-21T05:20:15.441Z,22.87
2018-02-21T05:22:43.022Z,22.27
2018-02-21T05:25:10.798Z,19.93
2018-02-21T05:27:38.394Z,20.23
2018-02-21T05:30:06.133Z,21.97
2018-02-21T05:32:33.684Z,24.20
2018-02-21T05:35:01.263Z,22.80
2018-02-21T05:37:28.793Z,24.83
2018-02-21T05:39:56.385Z,20.50
2018-02-21T05:42:24.226Z,22.07
2018-02-21T05:44:51.771Z,24.77
2018-02-21T05:47:19.342Z,23.60
2018-02-21T05:49:47.775Z,24.17
2018-02-21T05:52:15.354Z,21.27
2018-02-21T05:54:43.698Z,23.02
2018-02-21T05:57:11.280Z,21.25
2018-02-21T05:59:38.940Z,21.97
2018-02-21T06:02:06.500Z,21.90
2018-02-21T06:04:34.056Z,25.02
2018-02-21T06:07:01.654Z,22.83
2018-02-21T06:09:29.200Z,24.27
2018-02-21T06:11:56.797Z,23.17
2018-02-21T06:14:24.359Z,20.92
2018-02-21T06:16:51.923Z,21.40
2018-02-21T06:19:20.344Z,22.27
2018-02-21T06:21:47.895Z,24.65
2018-02-21T06:24:15.451Z,25.00
2018-02-21T06:26:43.116Z,23.20
2018-02-21T06:29:10.712Z,22.87
2018-02-21T06:31:38.250Z,25.60
2018-02-21T06:34:05.864Z,22.90
2018-02-21T06:36:33.528Z,25.47
2018-02-21T06:39:01.091Z,29.57
2018-02-21T06:41:28.737Z,29.80
2018-02-21T06:43:56.734Z,26.10
2018-02-21T06:46:24.311Z,33.67
2018-02-21T06:48:51.868Z,35.37
2018-02-21T06:51:19.559Z,32.17
2018-02-21T06:53:47.115Z,29.37
2018-02-21T06:56:14.676Z,45.87
2018-02-21T06:58:43.070Z,38.73
2018-02-21T07:01:10.710Z,38.80
2018-02-21T07:03:38.325Z,32.37
2018-02-21T07:06:05.920Z,36.72
2018-02-21T07:08:33.474Z,39.42
2018-02-21T07:11:01.084Z,35.60
2018-02-21T07:13:28.676Z,34.07
2018-02-21T07:15:57.147Z,34.77
2018-02-21T07:18:24.695Z,35.60
2018-02-21T07:20:52.291Z,34.30
2018-02-21T07:23:19.950Z,36.67
2018-02-21T07:25:47.572Z,36.27
2018-02-21T07:28:15.170Z,34.65
2018-02-21T07:30:42.756Z,41.50
2018-02-21T07:33:10.358Z,39.20
2018-02-21T07:35:38.012Z,42.42
2018-02-21T07:38:05.582Z,38.40
2018-02-21T07:40:33.599Z,38.03
2018-02-21T07:43:01.201Z,38.80
2018-02-21T07:45:29.080Z,41.03
2018-02-21T07:47:56.952Z,36.70
2018-02-21T07:50:24.987Z,35.83
2018-02-21T07:52:52.552Z,35.70
2018-02-21T07:55:20.140Z,39.08
2018-02-21T07:57:48.618Z,36.92
2018-02-21T08:00:16.178Z,43.13
2018-02-21T08:02:43.783Z,32.93
2018-02-21T08:05:11.755Z,36.97
2018-02-21T08:07:39.317Z,35.97
2018-02-21T08:10:06.911Z,33.97
2018-02-21T08:12:34.494Z,37.93
2018-02-21T08:15:02.047Z,35.67
2018-02-21T08:17:29.636Z,34.07
2018-02-21T08:19:57.244Z,33.87
2018-02-21T08:22:24.907Z,28.73
2018-02-21T08:24:52.449Z,39.50
2018-02-21T08:27:20.057Z,31.40
2018-02-21T08:29:47.656Z,32.50
2018-02-21T08:32:15.753Z,34.20
2018-02-21T08:34:43.376Z,33.97
2018-02-21T08:37:11.085Z,37.57
2018-02-21T08:39:39.527Z,35.93
2018-02-21T08:42:07.124Z,31.77
2018-02-21T08:44:34.783Z,35.43
2018-02-21T08:47:03.618Z,38.00
2018-02-21T08:49:31.175Z,37.10
2018-02-21T08:51:58.718Z,35.07
2018-02-21T08:54:26.396Z,33.60
2018-02-21T08:56:53.961Z,37.50
2018-02-21T08:59:21.535Z,35.95
2018-02-21T09:01:49.138Z,36.03
2018-02-21T09:04:16.725Z,36.45
2018-02-21T09:06:44.277Z,37.78
2018-02-21T09:09:11.828Z,34.77
2018-02-21T09:11:39.422Z,34.80
2018-02-21T09:14:06.984Z,32.77
2018-02-21T09:16:34.633Z,33.73
2018-02-21T09:19:02.156Z,35.07
2018-02-21T09:21:30.571Z,35.90
2018-02-21T09:23:58.160Z,35.55
2018-02-21T09:26:25.766Z,33.63
2018-02-21T09:28:53.423Z,35.67
2018-02-21T09:31:21.036Z,34.30
2018-02-21T09:33:48.620Z,29.23
2018-02-21T09:36:17.176Z,24.90
2018-02-21T09:38:44.789Z,34.33
2018-02-21T09:41:13.254Z,31.53
2018-02-21T09:43:40.866Z,36.40
2018-02-21T09:46:08.844Z,29.43
2018-02-21T09:48:37.324Z,39.65
2018-02-21T09:51:04.890Z,34.53
2018-02-21T09:53:32.435Z,37.67
2018-02-21T09:56:00.019Z,35.60
2018-02-21T09:58:27.579Z,35.63
2018-02-21T10:00:55.330Z,34.53
2018-02-21T10:03:23.996Z,32.07
2018-02-21T10:05:51.592Z,31.30
2018-02-21T10:08:19.167Z,29.23
2018-02-21T10:10:47.131Z,28.97
2018-02-21T10:13:14.715Z,33.22
2018-02-21T10:15:43.240Z,32.77
2018-02-21T10:18:10.838Z,30.83
2018-02-21T10:20:39.227Z,22.10
2018-02-21T10:23:06.783Z,30.30
2018-02-21T10:25:34.376Z,27.90
2018-02-21T10:28:02.367Z,25.83
2018-02-21T10:30:30.172Z,33.83
2018-02-21T10:32:58.763Z,32.03
2018-02-21T10:35:26.842Z,27.85
2018-02-21T10:37:54.645Z,35.95
2018-02-21T10:40:23.127Z,34.50
2018-02-21T10:42:50.976Z,33.97
2018-02-21T10:45:19.357Z,35.83
2018-02-21T10:47:46.973Z,36.67
2018-02-21T10:50:14.579Z,39.38
2018-02-21T10:52:42.168Z,33.53
2018-02-21T10:55:09.762Z,41.85
2018-02-21T10:57:38.137Z,43.87
2018-02-21T11:00:05.727Z,35.27
2018-02-21T11:02:33.270Z,46.13
2018-02-21T11:05:00.824Z,49.23
2018-02-21T11:07:29.249Z,37.73
2018-02-21T11:09:57.099Z,49.42
2018-02-21T11:12:24.707Z,44.55
2018-02-21T11:14:52.305Z,33.40
2018-02-21T11:17:19.891Z,46.88
2018-02-21T11:19:48.070Z,48.30
2018-02-21T11:22:15.621Z,37.15
2018-02-21T11:24:43.886Z,42.78
2018-02-21T11:27:11.542Z,36.53
2018-02-21T11:29:39.152Z,37.67
2018-02-21T11:32:06.697Z,27.43
2018-02-21T11:34:34.295Z,42.62
2018-02-21T11:37:02.060Z,34.35
2018-02-21T11:39:29.728Z,37.45
2018-02-21T11:41:57.340Z,43.50
2018-02-21T11:44:25.834Z,39.83
2018-02-21T11:46:54.020Z,38.67
2018-02-21T11:49:21.591Z,44.08
2018-02-21T11:51:49.191Z,36.93
2018-02-21T11:54:16.790Z,33.07
2018-02-21T11:56:44.388Z,35.00
2018-02-21T11:59:12.043Z,35.30
2018-02-21T12:01:39.951Z,32.85
2018-02-21T12:04:08.715Z,31.20
2018-02-21T12:06:36.261Z,29.80
2018-02-21T12:09:03.934Z,40.05
2018-02-21T12:11:31.735Z,36.38
2018-02-21T12:13:59.340Z,32.50
2018-02-21T12:16:26.897Z,24.47
2018-02-21T12:18:55.347Z,32.33
2018-02-21T12:21:22.951Z,39.80
2018-02-21T12:23:51.542Z,27.63
2018-02-21T12:26:19.453Z,34.17
2018-02-21T12:28:47.183Z,32.27
2018-02-21T12:31:15.593Z,28.27
2018-02-21T12:33:43.470Z,29.70
2018-02-21T12:36:15.517Z,31.20
2018-02-21T12:38:43.196Z,31.90
2018-02-21T12:41:17.346Z,30.73
2018-02-21T12:43:46.850Z,29.30
2018-02-21T12:46:14.480Z,31.10
2018-02-21T12:48:42.106Z,36.10
2018-02-21T12:51:09.694Z,32.78
2018-02-21T12:53:37.622Z,28.77
2018-02-21T12:56:05.683Z,40.65
2018-02-21T12:58:33.281Z,35.70
2018-02-21T13:01:00.831Z,37.43
2018-02-21T13:03:28.593Z,35.70
2018-02-21T13:05:56.275Z,36.93
2018-02-21T13:08:24.688Z,35.47
2018-02-21T13:10:53.467Z,39.27
2018-02-21T13:13:22.026Z,41.80
2018-02-21T13:15:49.576Z,48.10
2018-02-21T13:18:17.189Z,51.67
2018-02-21T13:20:44.800Z,48.20
2018-02-21T13:23:12.570Z,63.97
2018-02-21T13:25:40.324Z,47.97
2018-02-21T13:28:07.914Z,45.07
2018-02-21T13:30:35.526Z,49.10
2018-02-21T13:35:05.914Z,56.10
2018-02-21T13:37:33.502Z,50.03
2018-02-21T13:40:01.426Z,46.60
2018-02-21T13:42:29.075Z,51.70
2018-02-21T13:44:56.688Z,54.20
2018-02-21T13:47:24.348Z,51.03
2018-02-21T13:49:52.940Z,52.60
2018-02-21T13:52:21.016Z,48.87
2018-02-21T13:54:48.661Z,50.55
2018-02-21T13:57:16.396Z,46.95
2018-02-21T13:59:43.995Z,50.50
2018-02-21T14:02:11.540Z,48.43
2018-02-21T14:04:39.195Z,49.00
2018-02-21T14:07:07.395Z,51.65
2018-02-21T14:09:34.973Z,52.53
2018-02-21T14:12:02.565Z,49.73
2018-02-21T14:14:31.129Z,53.70
2018-02-21T14:16:59.482Z,50.88
2018-02-21T14:19:27.075Z,51.83
2018-02-21T14:21:54.679Z,55.93
2018-02-21T14:24:22.233Z,57.45
2018-02-21T14:26:50.582Z,64.30
2018-02-21T14:29:19.118Z,70.68
2018-02-21T14:31:50.730Z,61.73
2018-02-21T14:34:18.303Z,61.28
2018-02-21T14:36:45.887Z,63.80
2018-02-21T14:39:13.439Z,60.10
2018-02-21T14:41:41.370Z,67.00
2018-02-21T14:44:09.214Z,68.30
2018-02-21T14:46:37.166Z,67.10
2018-02-21T14:49:04.764Z,59.17
2018-02-21T14:51:33.065Z,51.90
2018-02-21T14:54:00.995Z,63.47
2018-02-21T14:56:28.535Z,66.00
2018-02-21T14:58:56.940Z,69.05
2018-02-21T15:01:25.035Z,62.60
2018-02-21T15:03:53.514Z,65.67
2018-02-21T15:06:21.691Z,71.23
2018-02-21T15:08:49.970Z,69.53
2018-02-21T15:11:17.572Z,64.53
2018-02-21T15:13:45.520Z,58.03
2018-02-21T15:16:19.178Z,62.10
2018-02-21T15:18:47.940Z,60.17
2018-02-21T15:21:15.641Z,68.27
2018-02-21T15:23:43.195Z,63.70
2018-02-21T15:26:11.280Z,58.40
2018-02-21T15:28:38.836Z,62.13
2018-02-21T15:31:06.465Z,60.45
2018-02-21T15:33:34.318Z,59.60
2018-02-21T15:36:01.876Z,68.93
2018-02-21T15:38:29.785Z,62.17
2018-02-21T15:40:57.362Z,58.30
2018-02-21T15:43:24.995Z,64.97
2018-02-21T15:45:52.619Z,60.72
2018-02-21T15:48:20.192Z,62.97
2018-02-21T15:50:48.591Z,60.53
2018-02-21T15:53:16.187Z,57.17
2018-02-21T15:55:43.779Z,63.65
2018-02-21T15:58:11.332Z,59.27
2018-02-21T16:03:13.628Z,61.10
2018-02-21T16:05:43.936Z,66.20
2018-02-21T16:08:11.910Z,59.47
2018-02-21T16:10:40.243Z,63.03
2018-02-21T16:13:10.715Z,55.07
2018-02-21T16:15:38.708Z,57.13
2018-02-21T16:18:07.526Z,55.00
2018-02-21T16:20:35.079Z,57.13
2018-02-21T16:23:05.936Z,54.57
2018-02-21T16:25:33.600Z,56.43
2018-02-21T16:28:02.639Z,54.73
2018-02-21T16:30:30.260Z,54.97
2018-02-21T16:32:58.379Z,55.53
2018-02-21T16:35:26.367Z,58.83
2018-02-21T16:37:54.223Z,52.17
2018-02-21T16:40:22.753Z,55.50
2018-02-21T16:42:53.522Z,57.27
2018-02-21T16:45:21.240Z,50.57
2018-02-21T16:47:48.831Z,53.37
2018-02-21T16:50:17.831Z,53.57
2018-02-21T16:52:47.179Z,53.87
2018-02-21T16:55:15.768Z,51.37
2018-02-21T16:57:43.311Z,54.40
2018-02-21T17:00:11.818Z,61.33
2018-02-21T17:02:39.580Z,55.20
2018-02-21T17:05:07.952Z,59.50
2018-02-21T17:07:35.912Z,57.07
2018-02-21T17:10:03.813Z,53.50
2018-02-21T17:12:31.357Z,63.50
2018-02-21T17:14:58.966Z,68.00
2018-02-21T17:17:26.510Z,62.10
2018-02-21T17:19:55.923Z,68.97
2018-02-21T17:22:24.602Z,60.90
2018-02-21T17:24:52.172Z,64.75
2018-02-21T17:27:19.770Z,56.10
2018-02-21T17:29:47.311Z,62.83
2018-02-21T17:32:14.878Z,62.83
2018-02-21T17:34:42.418Z,65.83
2018-02-21T17:37:10.774Z,63.47
2018-02-21T17:39:38.403Z,55.47
2018-02-21T17:42:06.402Z,60.77
2018-02-21T17:44:33.949Z,59.23
2018-02-21T17:47:03.012Z,58.80
2018-02-21T17:49:31.436Z,63.00
2018-02-21T17:52:00.605Z,47.63
2018-02-21T17:54:28.463Z,59.90
2018-02-21T17:56:56.649Z,58.93
2018-02-21T17:59:25.208Z,56.93
2018-02-21T18:01:53.176Z,58.33
2018-02-21T18:04:20.759Z,57.50
2018-02-21T18:06:48.311Z,53.97
2018-02-21T18:09:16.388Z,58.17
2018-02-21T18:11:46.193Z,69.03
2018-02-21T18:14:14.731Z,54.90
2018-02-21T18:16:42.290Z,55.43
2018-02-21T18:19:09.887Z,54.40
2018-02-21T18:21:43.701Z,62.00
2018-02-21T18:33:36.946Z,62.20
2018-02-21T18:36:06.344Z,64.37
2018-02-21T18:38:33.954Z,69.57
2018-02-21T18:41:02.165Z,65.77
2018-02-21T18:43:30.862Z,65.70
2018-02-21T18:45:58.410Z,68.10
2018-02-21T18:48:26.468Z,64.83
2018-02-21T18:50:54.030Z,65.57
2018-02-21T18:53:21.871Z,68.53
2018-02-21T18:55:51.478Z,59.37
2018-02-21T18:58:19.741Z,66.97
2018-02-21T19:00:47.833Z,60.00
2018-02-21T19:03:16.386Z,60.53
2018-02-21T19:05:43.997Z,62.67
2018-02-21T19:08:12.942Z,74.17
2018-02-21T19:10:41.020Z,79.87
2018-02-21T19:13:09.348Z,62.30
2018-02-21T19:15:37.527Z,72.33
2018-02-21T19:18:06.092Z,61.33
2018-02-21T19:20:33.881Z,75.70
2018-02-21T19:23:01.427Z,80.60
2018-02-21T19:25:47.411Z,71.97
2018-02-21T19:28:15.013Z,75.30
2018-02-21T19:30:42.834Z,66.33
2018-02-21T19:33:11.398Z,69.40
2018-02-21T19:35:38.960Z,70.27
2018-02-21T19:38:07.143Z,72.50
2018-02-21T19:40:35.638Z,71.00
2018-02-21T19:43:03.495Z,65.93
2018-02-21T19:45:31.083Z,66.30
2018-02-21T19:47:58.670Z,65.40
2018-02-21T19:50:26.272Z,63.90
2018-02-21T19:52:53.815Z,71.40
2018-02-21T19:55:23.358Z,78.87
2018-02-21T19:57:51.260Z,68.83
2018-02-21T20:00:18.891Z,71.37
2018-02-21T20:02:47.777Z,57.47
2018-02-21T20:05:15.369Z,62.87
2018-02-21T20:07:42.993Z,63.13
2018-02-21T20:10:10.552Z,61.77
2018-02-21T20:12:38.414Z,60.43
2018-02-21T20:15:06.020Z,70.33
2018-02-21T20:17:34.080Z,65.17
2018-02-21T20:20:02.513Z,65.97
2018-02-21T20:22:30.259Z,62.47
2018-02-21T20:24:59.163Z,57.87
2018-02-21T20:27:26.718Z,65.77
2018-02-21T20:29:54.691Z,83.00
2018-02-21T20:32:22.632Z,63.13
2018-02-21T20:34:50.978Z,60.73
2018-02-21T20:37:19.070Z,62.77
2018-02-21T20:39:47.073Z,66.63
2018-02-21T20:42:15.462Z,66.00
2018-02-21T20:44:43.507Z,60.13
2018-02-21T20:47:11.162Z,62.47
2018-02-21T20:49:38.968Z,70.00
2018-02-21T20:52:06.501Z,68.37
2018-02-21T20:54:34.079Z,67.37
2018-02-21T20:57:01.939Z,62.40
2018-02-21T20:59:29.500Z,65.60
2018-02-21T21:01:57.471Z,59.90
2018-02-21T21:04:25.058Z,61.07
2018-02-21T21:06:52.655Z,55.43
2018-02-21T21:09:20.255Z,59.27
2018-02-21T21:11:47.804Z,60.70
2018-02-21T21:14:15.396Z,58.13
2018-02-21T21:16:42.934Z,56.27
2018-02-21T21:19:10.514Z,60.73
2018-02-21T21:21:39.465Z,56.70
2018-02-21T21:24:07.068Z,58.30
2018-02-21T21:26:34.662Z,59.23
2018-02-21T21:29:02.216Z,53.37
2018-02-21T21:31:29.768Z,65.60
2018-02-21T21:33:58.096Z,62.97
2018-02-21T21:36:26.292Z,53.93
2018-02-21T21:38:53.884Z,61.03
2018-02-21T21:41:21.431Z,67.90
2018-02-21T21:43:49.037Z,59.67
2018-02-21T21:46:16.628Z,54.53
2018-02-21T21:48:44.171Z,57.93
2018-02-21T21:51:11.758Z,50.50
2018-02-21T21:53:39.523Z,56.93
2018-02-21T21:56:07.119Z,52.77
2018-02-21T21:58:34.716Z,48.93
2018-02-21T22:01:02.674Z,52.37
2018-02-21T22:03:30.264Z,54.47
2018-02-21T22:05:57.846Z,49.33
2018-02-21T22:08:25.390Z,47.13
2018-02-21T22:10:53.954Z,49.53
2018-02-21T22:13:22.135Z,48.07
2018-02-21T22:15:50.983Z,50.27
2018-02-21T22:18:18.569Z,44.90
2018-02-21T22:20:46.168Z,46.50
2018-02-21T22:23:13.726Z,39.80
2018-02-21T22:25:41.275Z,37.97
2018-02-21T22:28:09.032Z,40.67
2018-02-21T22:30:37.051Z,42.97
2018-02-21T22:33:04.670Z,43.17
2018-02-21T22:35:32.487Z,43.83
2018-02-21T22:38:01.532Z,45.80
2018-02-21T22:40:29.104Z,42.17
2018-02-21T22:42:56.885Z,43.23
2018-02-21T22:45:24.480Z,46.70
2018-02-21T22:47:52.023Z,39.60
2018-02-21T22:50:20.004Z,42.83
2018-02-21T22:52:47.964Z,38.90
2018-02-21T22:55:15.520Z,40.27
2018-02-21T22:57:43.058Z,37.03
2018-02-21T23:00:10.647Z,42.27
2018-02-21T23:02:38.666Z,38.90
2018-02-21T23:05:06.216Z,42.47
2018-02-21T23:07:33.772Z,39.60
2018-02-21T23:10:01.643Z,35.73
2018-02-21T23:12:29.412Z,38.83
2018-02-21T23:14:56.949Z,38.50
2018-02-21T23:17:24.527Z,36.73
2018-02-21T23:19:52.076Z,41.23
2018-02-21T23:22:19.755Z,38.20
2018-02-21T23:24:47.672Z,35.90
2018-02-21T23:27:15.217Z,35.40
2018-02-21T23:29:42.791Z,35.47
2018-02-21T23:32:10.362Z,35.10
2018-02-21T23:34:37.908Z,34.50
2018-02-21T23:37:05.487Z,35.97
2018-02-21T23:39:33.073Z,34.40
2018-02-21T23:42:00.653Z,31.97
2018-02-21T23:44:28.302Z,34.53
2018-02-21T23:46:56.012Z,31.93
2018-02-21T23:49:23.550Z,31.87
2018-02-21T23:51:51.140Z,28.47
2018-02-21T23:54:19.258Z,29.80
2018-02-21T23:56:46.794Z,32.87
2018-02-21T23:59:14.373Z,27.93
